createdAt,value
2023-01-30T00:02:26.655Z,-3276.30
2023-01-30T00:07:31.008Z,-3276.40
2023-01-30T00:12:36.240Z,-3276.40
2023-01-30T00:17:41.941Z,-3276.60
2023-01-30T00:23:00.144Z,-3276.60
2023-01-30T00:28:05.080Z,0.00
2023-01-30T00:33:10.812Z,-3276.70
2023-01-30T00:38:15.076Z,0.00
2023-01-30T00:43:39.456Z,-3276.70
2023-01-30T00:48:43.912Z,-3276.70
2023-01-30T00:53:47.305Z,-3276.50
2023-01-30T00:58:50.441Z,-3276.60
2023-01-30T01:03:54.479Z,-3276.50
2023-01-30T01:08:58.442Z,-3276.30
2023-01-30T01:14:04.946Z,-3276.20
2023-01-30T01:19:09.326Z,-3276.20
2023-01-30T01:24:15.360Z,-3276.10
2023-01-30T01:29:19.937Z,-3276.10
2023-01-30T01:34:24.389Z,-3276.00
2023-01-30T01:39:47.209Z,-3275.90
2023-01-30T01:45:19.743Z,-3275.70
2023-01-30T01:50:31.677Z,-3275.60
2023-01-30T01:55:37.163Z,-3275.50
2023-01-30T02:00:42.372Z,-3275.60
2023-01-30T02:05:50.593Z,-3275.70
2023-01-30T02:11:07.700Z,-3275.70
2023-01-30T02:16:14.242Z,-3275.70
2023-01-30T02:21:52.992Z,-3275.70
2023-01-30T02:27:15.488Z,-3275.70
2023-01-30T02:32:33.794Z,-3275.70
2023-01-30T02:38:00.295Z,-3275.70
2023-01-30T02:43:23.604Z,-3275.70
2023-01-30T02:48:53.895Z,-3275.70
2023-01-30T02:53:59.623Z,-3275.70
2023-01-30T02:59:07.110Z,-3275.70
2023-01-30T03:04:55.745Z,-3275.70
2023-01-30T03:10:38.379Z,-3275.70
2023-01-30T03:15:57.087Z,-3275.60
2023-01-30T03:21:06.662Z,-3275.60
2023-01-30T03:26:18.261Z,-3275.60
2023-01-30T03:31:22.641Z,-3275.70
2023-01-30T03:36:27.535Z,-3275.70
2023-01-30T03:41:33.925Z,-3275.60
2023-01-30T03:46:38.664Z,-3275.40
2023-01-30T03:51:42.463Z,-3275.30
2023-01-30T03:56:47.141Z,-3275.20
2023-01-30T04:01:51.579Z,-3275.30
2023-01-30T04:06:59.638Z,-3275.40
2023-01-30T04:12:04.960Z,-3275.50
2023-01-30T04:17:15.523Z,-3275.40
2023-01-30T04:22:34.209Z,-3275.40
2023-01-30T04:27:37.754Z,-3275.30
2023-01-30T04:32:52.447Z,-3275.30
2023-01-30T04:37:57.367Z,-3275.30
2023-01-30T04:43:01.209Z,-3275.40
2023-01-30T04:48:26.699Z,-3275.40
2023-01-30T04:53:35.581Z,-3275.40
2023-01-30T04:58:39.646Z,-3275.20
2023-01-30T05:03:45.063Z,-3275.10
2023-01-30T05:08:50.011Z,-3275.00
2023-01-30T05:13:59.699Z,-3274.90
2023-01-30T05:19:03.872Z,-3274.90
2023-01-30T05:24:07.962Z,-3274.90
2023-01-30T05:29:11.831Z,-3274.90
2023-01-30T05:34:15.648Z,-3274.80
2023-01-30T05:39:20.839Z,-3274.70
2023-01-30T05:44:24.593Z,-3274.70
2023-01-30T05:49:29.581Z,-3274.70
2023-01-30T05:54:34.811Z,-3274.80
2023-01-30T05:59:40.225Z,-3274.80
2023-01-30T06:04:44.240Z,-3274.70
2023-01-30T06:09:48.072Z,-3274.70
2023-01-30T06:14:53.779Z,-3274.80
2023-01-30T06:19:58.728Z,-3274.70
2023-01-30T06:25:03.945Z,-3274.70
2023-01-30T06:30:08.904Z,-3274.70
2023-01-30T06:35:14.469Z,-3274.70
2023-01-30T06:40:18.658Z,-3274.90
2023-01-30T06:45:22.472Z,-3274.90
2023-01-30T06:50:28.162Z,-3274.90
2023-01-30T06:55:35.096Z,-3274.90
2023-01-30T07:00:40.851Z,-3275.00
2023-01-30T07:05:47.471Z,-3275.20
2023-01-30T07:10:51.467Z,-3275.30
2023-01-30T07:15:56.402Z,-3275.40
2023-01-30T07:21:01.449Z,-3275.50
2023-01-30T07:26:06.799Z,-3275.80
2023-01-30T07:31:12.539Z,-3276.20
2023-01-30T07:36:17.329Z,-3276.30
2023-01-30T07:41:22.057Z,-3276.60
2023-01-30T07:46:26.438Z,0.00
2023-01-30T07:51:30.279Z,0.10
2023-01-30T07:56:35.423Z,0.30
2023-01-30T08:01:40.236Z,0.40
2023-01-30T08:06:44.538Z,0.70
2023-01-30T08:11:49.241Z,0.80
2023-01-30T08:16:53.055Z,0.90
2023-01-30T08:21:59.440Z,1.10
2023-01-30T08:27:03.518Z,1.40
2023-01-30T08:32:06.947Z,1.70
2023-01-30T08:37:11.974Z,1.90
2023-01-30T08:42:15.877Z,2.10
2023-01-30T08:47:19.769Z,2.10
2023-01-30T08:52:24.419Z,2.30
2023-01-30T08:57:28.190Z,2.10
2023-01-30T09:02:32.558Z,1.80
2023-01-30T09:07:37.338Z,1.70
2023-01-30T09:12:41.804Z,1.70
2023-01-30T09:17:46.938Z,1.80
2023-01-30T09:22:51.973Z,2.00
2023-01-30T09:27:56.314Z,2.30
2023-01-30T09:33:00.993Z,2.30
2023-01-30T09:38:05.777Z,2.30
2023-01-30T09:43:30.288Z,2.70
2023-01-30T09:48:44.799Z,2.90
2023-01-30T09:54:14.446Z,3.00
2023-01-30T09:59:26.398Z,3.30
2023-01-30T10:04:35.589Z,3.40
2023-01-30T10:09:56.423Z,3.80
2023-01-30T10:15:42.636Z,3.90
2023-01-30T10:21:16.081Z,3.90
2023-01-30T10:26:26.673Z,4.30
2023-01-30T10:31:41.382Z,4.70
2023-01-30T10:37:10.846Z,4.70
2023-01-30T10:42:22.572Z,4.40
2023-01-30T10:47:51.571Z,3.90
2023-01-30T10:53:17.463Z,3.80
2023-01-30T10:58:26.631Z,3.60
2023-01-30T11:04:12.865Z,3.70
2023-01-30T11:09:16.648Z,4.20
2023-01-30T11:14:20.909Z,4.60
2023-01-30T11:19:33.571Z,4.90
2023-01-30T11:24:45.482Z,5.10
2023-01-30T11:29:50.492Z,5.30
2023-01-30T11:35:09.920Z,5.50
2023-01-30T11:40:27.025Z,5.50
2023-01-30T11:45:39.867Z,5.50
2023-01-30T11:50:49.688Z,5.40
2023-01-30T11:56:05.439Z,5.80
2023-01-30T12:01:12.295Z,6.40
2023-01-30T12:06:34.558Z,6.70
2023-01-30T12:11:40.760Z,6.50
2023-01-30T12:17:12.835Z,6.80
2023-01-30T12:22:32.413Z,7.10
2023-01-30T12:27:45.035Z,7.40
2023-01-30T12:32:49.213Z,7.70
2023-01-30T12:38:25.401Z,7.40
2023-01-30T12:43:57.056Z,7.50
2023-01-30T12:49:15.554Z,7.60
2023-01-30T12:54:43.310Z,7.80
2023-01-30T13:00:19.846Z,7.80
2023-01-30T13:05:43.463Z,8.00
2023-01-30T13:11:12.323Z,8.20
2023-01-30T13:16:45.147Z,8.60
2023-01-30T13:22:26.621Z,9.20
2023-01-30T13:27:37.099Z,10.10
2023-01-30T13:32:53.241Z,11.60
2023-01-30T13:37:58.006Z,11.90
2023-01-30T13:43:14.246Z,12.90
2023-01-30T13:48:31.911Z,13.40
2023-01-30T13:53:39.928Z,14.00
2023-01-30T13:58:56.040Z,14.70
2023-01-30T14:04:40.129Z,15.00
2023-01-30T14:10:05.716Z,14.60
2023-01-30T14:15:15.825Z,13.80
2023-01-30T14:20:23.065Z,11.60
2023-01-30T14:25:26.859Z,9.90
2023-01-30T14:30:39.365Z,8.50
2023-01-30T14:35:43.799Z,7.80
2023-01-30T14:41:00.108Z,7.40
2023-01-30T14:46:18.398Z,7.30
2023-01-30T14:51:48.013Z,7.10
2023-01-30T14:57:06.621Z,6.90
2023-01-30T15:02:14.370Z,6.80
2023-01-30T15:07:24.599Z,6.60
2023-01-30T15:12:28.712Z,6.50
2023-01-30T15:18:08.433Z,6.40
2023-01-30T15:23:43.696Z,6.40
2023-01-30T15:28:58.078Z,6.30
2023-01-30T15:34:02.337Z,6.10
2023-01-30T15:39:18.619Z,5.90
2023-01-30T15:45:03.536Z,5.70
2023-01-30T15:50:09.895Z,5.50
2023-01-30T15:55:24.917Z,5.40
2023-01-30T16:00:53.571Z,5.30
2023-01-30T16:05:58.454Z,5.10
2023-01-30T16:11:03.731Z,4.90
2023-01-30T16:16:13.717Z,4.50
2023-01-30T16:21:26.903Z,4.20
2023-01-30T16:26:34.566Z,4.00
2023-01-30T16:31:40.237Z,3.80
2023-01-30T16:36:47.681Z,3.50
2023-01-30T16:41:59.637Z,3.30
2023-01-30T16:47:04.968Z,3.10
2023-01-30T16:52:51.143Z,2.90
2023-01-30T16:58:02.127Z,2.80
2023-01-30T17:03:19.181Z,2.60
2023-01-30T17:08:42.901Z,2.50
2023-01-30T17:14:06.646Z,2.30
2023-01-30T17:19:10.656Z,2.30
2023-01-30T17:24:17.274Z,2.20
2023-01-30T17:29:41.437Z,2.10
2023-01-30T17:34:46.717Z,1.90
2023-01-30T17:39:50.946Z,1.80
2023-01-30T17:45:35.554Z,1.70
2023-01-30T17:50:40.028Z,1.60
2023-01-30T17:56:04.121Z,1.50
2023-01-30T18:01:09.068Z,1.50
2023-01-30T18:06:16.333Z,1.40
2023-01-30T18:11:24.676Z,1.20
2023-01-30T18:16:33.675Z,1.00
2023-01-30T18:21:40.065Z,1.00
2023-01-30T18:26:44.874Z,1.00
2023-01-30T18:31:48.771Z,1.00
2023-01-30T18:36:53.634Z,0.80
2023-01-30T18:41:57.945Z,0.80
2023-01-30T18:47:03.816Z,0.70
2023-01-30T18:52:08.098Z,0.60
2023-01-30T18:57:12.526Z,0.50
2023-01-30T19:02:16.822Z,0.50
2023-01-30T19:07:21.037Z,0.30
2023-01-30T19:12:43.620Z,0.30
2023-01-30T19:17:48.405Z,0.40
2023-01-30T19:22:55.738Z,0.40
2023-01-30T19:27:59.104Z,0.30
2023-01-30T19:33:03.850Z,0.30
2023-01-30T19:38:07.909Z,0.10
2023-01-30T19:43:13.434Z,0.20
2023-01-30T19:48:18.012Z,0.20
2023-01-30T19:53:21.442Z,0.00
2023-01-30T19:58:25.428Z,0.10
2023-01-30T20:03:29.340Z,0.00
2023-01-30T20:08:34.957Z,0.20
2023-01-30T20:13:42.553Z,0.10
2023-01-30T20:18:48.399Z,0.20
2023-01-30T20:23:53.494Z,0.20
2023-01-30T20:28:58.589Z,0.20
2023-01-30T20:34:05.683Z,0.00
2023-01-30T20:39:09.561Z,0.00
2023-01-30T20:44:14.608Z,-3276.70
2023-01-30T20:49:21.044Z,-3276.70
2023-01-30T20:54:26.012Z,-3276.70
2023-01-30T20:59:30.361Z,-3276.50
2023-01-30T21:04:34.500Z,-3276.40
2023-01-30T21:09:39.479Z,-3276.40
2023-01-30T21:14:43.544Z,-3276.40
2023-01-30T21:19:49.044Z,-3276.30
2023-01-30T21:24:53.822Z,-3276.30
2023-01-30T21:29:58.869Z,-3276.20
2023-01-30T21:35:03.380Z,-3276.50
2023-01-30T21:40:28.147Z,-3276.40
2023-01-30T21:45:32.254Z,-3276.50
2023-01-30T21:50:36.482Z,-3276.50
2023-01-30T21:55:40.580Z,-3276.40
2023-01-30T22:00:44.556Z,-3276.50
2023-01-30T22:05:48.880Z,-3276.40
2023-01-30T22:10:53.086Z,-3276.50
2023-01-30T22:16:03.152Z,-3276.40
2023-01-30T22:21:16.061Z,-3276.50
2023-01-30T22:26:23.217Z,-3276.50
